Time;durP1;ratioP1;P1;durP2;ratioP2;P2;SDS_P1;SDS_P2;PMS_P1;PMS_P2;Temp;Humidity;BMP_temperature;BMP_pressure;BME280_temperature;BME280_humidity;BME280_pressure;Samples;Min_cycle;Max_cycle;Signal;HPM_P1;HPM_P2
2024/02/24 00:00:32;;;;;;;0.10;0.10;;;;;;;;;;4994717;28;20037;-84
2024/02/24 00:02:58;;;;;;;0.20;0.20;;;;;;;;;;4994810;28;20104;-84
2024/02/24 00:05:26;;;;;;;0.10;0.10;;;;;;;;;;4994770;28;20099;-85
2024/02/24 00:07:52;;;;;;;0.10;0.10;;;;;;;;;;4995161;28;20177;-85
2024/02/24 00:10:19;;;;;;;0.32;0.32;;;;;;;;;;4994865;28;20073;-84
2024/02/24 00:12:45;;;;;;;0.10;0.10;;;;;;;;;;4994772;28;20049;-84
2024/02/24 00:15:11;;;;;;;0.10;0.10;;;;;;;;;;4994748;28;20124;-84
2024/02/24 00:17:38;;;;;;;0.10;0.10;;;;;;;;;;4994552;28;20049;-84
2024/02/24 00:20:08;;;;;;;0.10;0.10;;;;;;;;;;4994773;28;20042;-83
2024/02/24 00:22:34;;;;;;;0.10;0.10;;;;;;;;;;4994803;28;20216;-84
2024/02/24 00:25:00;;;;;;;0.10;0.10;;;;;;;;;;4994942;28;20064;-84
2024/02/24 00:27:26;;;;;;;0.10;0.10;;;;;;;;;;4994664;28;20524;-83
2024/02/24 00:29:52;;;;;;;0.30;0.30;;;;;;;;;;5010897;28;20034;-84
2024/02/24 00:32:18;;;;;;;0.15;0.15;;;;;;;;;;4994509;28;20069;-84
2024/02/24 00:34:44;;;;;;;0.10;0.10;;;;;;;;;;4994864;28;20080;-84
2024/02/24 00:37:10;;;;;;;0.10;0.10;;;;;;;;;;4994454;28;20080;-84
2024/02/24 00:39:37;;;;;;;0.10;0.10;;;;;;;;;;4994360;28;20485;-84
2024/02/24 00:42:03;;;;;;;0.10;0.10;;;;;;;;;;4994324;28;20049;-84
2024/02/24 00:44:30;;;;;;;0.55;0.55;;;;;;;;;;5010586;28;20069;-85
2024/02/24 00:46:56;;;;;;;0.10;0.10;;;;;;;;;;4994255;28;20481;-84
2024/02/24 00:49:22;;;;;;;0.10;0.10;;;;;;;;;;4994492;28;20037;-83
2024/02/24 00:51:48;;;;;;;0.10;0.10;;;;;;;;;;4994317;28;20145;-84
2024/02/24 00:54:14;;;;;;;0.20;0.20;;;;;;;;;;4994639;28;20115;-84
2024/02/24 00:56:40;;;;;;;0.20;0.20;;;;;;;;;;5010628;28;20056;-84
2024/02/24 00:59:06;;;;;;;0.10;0.10;;;;;;;;;;4994496;28;20402;-83
2024/02/24 01:01:34;;;;;;;0.10;0.10;;;;;;;;;;4994102;28;20049;-84
2024/02/24 01:04:00;;;;;;;0.10;0.10;;;;;;;;;;5010428;28;20046;-84
2024/02/24 01:06:26;;;;;;;0.10;0.10;;;;;;;;;;4994346;28;20065;-84
2024/02/24 01:08:52;;;;;;;0.10;0.10;;;;;;;;;;4996103;28;20129;-85
2024/02/24 01:11:18;;;;;;;0.10;0.10;;;;;;;;;;4997621;28;20125;-85
2024/02/24 01:13:44;;;;;;;0.20;0.20;;;;;;;;;;4997544;28;20053;-85
2024/02/24 01:16:11;;;;;;;0.10;0.10;;;;;;;;;;4997717;28;20045;-84
2024/02/24 01:18:37;;;;;;;0.10;0.10;;;;;;;;;;4997818;28;20371;-85
2024/02/24 01:21:03;;;;;;;0.10;0.10;;;;;;;;;;4997445;28;20046;-84
2024/02/24 01:23:29;;;;;;;0.10;0.10;;;;;;;;;;4997548;28;20092;-85
2024/02/24 01:25:55;;;;;;;0.10;0.10;;;;;;;;;;4997767;28;20052;-85
2024/02/24 01:28:21;;;;;;;0.10;0.10;;;;;;;;;;4997408;28;20497;-85
2024/02/24 01:30:47;;;;;;;0.10;0.10;;;;;;;;;;4997558;28;20377;-86
2024/02/24 01:33:13;;;;;;;0.10;0.10;;;;;;;;;;4997579;28;20407;-84
2024/02/24 01:35:39;;;;;;;0.10;0.10;;;;;;;;;;4997306;28;20046;-84
2024/02/24 01:38:05;;;;;;;0.10;0.10;;;;;;;;;;5013727;28;20037;-84
2024/02/24 01:40:31;;;;;;;0.10;0.10;;;;;;;;;;4997117;28;20060;-84
2024/02/24 01:42:57;;;;;;;0.20;0.20;;;;;;;;;;5013433;28;20060;-85
2024/02/24 01:45:23;;;;;;;0.10;0.10;;;;;;;;;;4997162;28;20220;-85
2024/02/24 01:47:52;;;;;;;0.20;0.20;;;;;;;;;;4997410;28;20100;-85
2024/02/24 01:50:19;;;;;;;0.10;0.10;;;;;;;;;;4997274;28;20033;-84
2024/02/24 01:52:46;;;;;;;0.10;0.10;;;;;;;;;;4996927;28;20508;-84
2024/02/24 01:55:12;;;;;;;0.10;0.10;;;;;;;;;;5001206;28;20068;-84
2024/02/24 01:57:42;;;;;;;0.10;0.10;;;;;;;;;;5012998;28;20132;-85
2024/02/24 02:00:09;;;;;;;0.10;0.10;;;;;;;;;;5013016;28;20038;-87
2024/02/24 02:02:36;;;;;;;0.10;0.10;;;;;;;;;;4996639;28;20140;-87
2024/02/24 02:05:02;;;;;;;0.10;0.10;;;;;;;;;;5012845;28;20057;-86
2024/02/24 02:07:28;;;;;;;0.10;0.10;;;;;;;;;;5012964;28;20042;-85
2024/02/24 02:09:59;;;;;;;0.17;0.17;;;;;;;;;;5029298;28;20038;-84
2024/02/24 02:12:25;;;;;;;0.10;0.10;;;;;;;;;;5012877;28;20053;-85
2024/02/24 02:14:51;;;;;;;0.10;0.10;;;;;;;;;;5012934;28;20396;-84
2024/02/24 02:17:17;;;;;;;0.45;0.32;;;;;;;;;;5012729;28;20046;-83
2024/02/24 02:19:44;;;;;;;0.10;0.10;;;;;;;;;;5011493;28;20077;-85
2024/02/24 02:22:11;;;;;;;0.10;0.10;;;;;;;;;;5012836;28;20511;-85
2024/02/24 02:24:38;;;;;;;0.10;0.10;;;;;;;;;;5012628;28;20117;-85
2024/02/24 02:27:06;;;;;;;0.10;0.10;;;;;;;;;;5012415;28;20150;-85
2024/02/24 02:29:33;;;;;;;0.10;0.10;;;;;;;;;;5012441;28;20041;-85
2024/02/24 02:31:59;;;;;;;0.20;0.20;;;;;;;;;;5012574;28;20124;-84
2024/02/24 02:34:25;;;;;;;0.20;0.20;;;;;;;;;;5012372;28;20046;-85
2024/02/24 02:36:51;;;;;;;0.10;0.10;;;;;;;;;;5012316;28;20038;-84
2024/02/24 02:39:17;;;;;;;0.10;0.10;;;;;;;;;;5012184;28;20045;-84
2024/02/24 02:41:43;;;;;;;0.10;0.10;;;;;;;;;;5012421;28;20042;-85
2024/02/24 02:44:09;;;;;;;0.10;0.10;;;;;;;;;;5012260;28;20185;-84
2024/02/24 02:46:35;;;;;;;0.10;0.10;;;;;;;;;;4995759;28;20046;-85
2024/02/24 02:49:01;;;;;;;0.10;0.10;;;;;;;;;;5012561;28;20417;-86
2024/02/24 02:51:27;;;;;;;0.10;0.10;;;;;;;;;;5012119;28;20073;-86
2024/02/24 02:53:53;;;;;;;0.10;0.10;;;;;;;;;;5012085;28;20042;-84
2024/02/24 02:56:20;;;;;;;0.10;0.10;;;;;;;;;;5011927;28;20069;-85
2024/02/24 02:58:47;;;;;;;0.10;0.10;;;;;;;;;;5011917;28;20524;-85
2024/02/24 03:01:13;;;;;;;0.17;0.17;;;;;;;;;;5011821;28;20129;-85
2024/02/24 03:03:39;;;;;;;0.10;0.10;;;;;;;;;;5012220;28;20362;-84
2024/02/24 03:06:05;;;;;;;0.10;0.10;;;;;;;;;;5011773;28;20544;-84
2024/02/24 03:08:33;;;;;;;0.10;0.10;;;;;;;;;;5011971;28;20087;-85
2024/02/24 03:10:59;;;;;;;0.10;0.10;;;;;;;;;;4995486;28;20038;-84
2024/02/24 03:13:25;;;;;;;0.20;0.20;;;;;;;;;;5011668;28;20045;-85
2024/02/24 03:15:51;;;;;;;0.10;0.10;;;;;;;;;;5011919;28;20208;-85
2024/02/24 03:18:18;;;;;;;0.10;0.10;;;;;;;;;;5011914;28;20046;-85
2024/02/24 03:20:44;;;;;;;0.30;0.30;;;;;;;;;;5011479;28;20512;-85
2024/02/24 03:23:10;;;;;;;0.10;0.10;;;;;;;;;;4995166;28;20054;-85
2024/02/24 03:25:36;;;;;;;0.10;0.10;;;;;;;;;;5011344;28;20044;-85
2024/02/24 03:28:03;;;;;;;0.10;0.10;;;;;;;;;;5011673;28;20073;-84
2024/02/24 03:30:29;;;;;;;0.10;0.10;;;;;;;;;;5011727;28;20458;-84
2024/02/24 03:32:55;;;;;;;0.10;0.10;;;;;;;;;;5011076;28;20135;-84
2024/02/24 03:35:22;;;;;;;0.10;0.10;;;;;;;;;;5011660;28;20108;-84
2024/02/24 03:37:51;;;;;;;0.30;0.30;;;;;;;;;;5011243;28;20056;-85
2024/02/24 03:40:17;;;;;;;0.10;0.10;;;;;;;;;;5011197;28;20509;-85
2024/02/24 03:42:43;;;;;;;0.10;0.10;;;;;;;;;;5011351;28;20041;-85
2024/02/24 03:45:09;;;;;;;0.10;0.10;;;;;;;;;;5011425;28;20100;-85
2024/02/24 03:47:35;;;;;;;0.10;0.10;;;;;;;;;;5011471;28;20453;-85
2024/02/24 03:50:02;;;;;;;0.10;0.10;;;;;;;;;;5011266;28;20038;-85
2024/02/24 03:52:28;;;;;;;0.10;0.10;;;;;;;;;;5011409;28;20429;-85
2024/02/24 03:54:54;;;;;;;0.10;0.10;;;;;;;;;;5010924;28;20112;-85
2024/02/24 03:57:20;;;;;;;0.10;0.10;;;;;;;;;;5011111;28;20120;-86
2024/02/24 03:59:46;;;;;;;0.10;0.10;;;;;;;;;;5011097;28;20124;-85
2024/02/24 04:02:12;;;;;;;0.10;0.10;;;;;;;;;;5011057;28;20101;-85
2024/02/24 04:04:38;;;;;;;0.10;0.10;;;;;;;;;;4994966;28;20405;-84
2024/02/24 04:07:04;;;;;;;0.10;0.10;;;;;;;;;;5011088;28;20046;-85
2024/02/24 04:09:30;;;;;;;0.20;0.20;;;;;;;;;;4994712;28;20445;-84
2024/02/24 04:11:56;;;;;;;0.20;0.20;;;;;;;;;;5010922;28;20034;-85
2024/02/24 04:14:22;;;;;;;0.10;0.10;;;;;;;;;;5010986;28;20124;-85
2024/02/24 04:16:48;;;;;;;0.10;0.10;;;;;;;;;;5010970;28;20045;-85
2024/02/24 04:19:14;;;;;;;0.10;0.10;;;;;;;;;;5010812;28;20069;-84
2024/02/24 04:21:40;;;;;;;0.10;0.10;;;;;;;;;;5010773;28;20046;-85
2024/02/24 04:24:07;;;;;;;0.30;0.30;;;;;;;;;;5010914;28;20513;-84
2024/02/24 04:26:33;;;;;;;0.17;0.17;;;;;;;;;;5010905;28;20049;-84
2024/02/24 04:28:59;;;;;;;0.10;0.10;;;;;;;;;;5010874;28;20474;-84
2024/02/24 04:31:27;;;;;;;0.10;0.10;;;;;;;;;;4994476;28;20096;-84
2024/02/24 04:33:53;;;;;;;0.10;0.10;;;;;;;;;;4994650;28;20103;-84
2024/02/24 04:36:19;;;;;;;0.10;0.10;;;;;;;;;;5011047;28;20041;-84
2024/02/24 04:38:45;;;;;;;0.10;0.10;;;;;;;;;;5011024;28;20508;-84
2024/02/24 04:41:11;;;;;;;0.10;0.10;;;;;;;;;;4994623;28;20129;-84
2024/02/24 04:43:37;;;;;;;0.10;0.10;;;;;;;;;;5012084;28;20037;-84
2024/02/24 04:46:04;;;;;;;0.10;0.10;;;;;;;;;;4997954;28;20042;-84
2024/02/24 04:48:30;;;;;;;0.10;0.10;;;;;;;;;;4998200;28;20037;-83
2024/02/24 04:50:57;;;;;;;0.10;0.10;;;;;;;;;;5014140;28;20038;-84
2024/02/24 04:53:23;;;;;;;0.13;0.13;;;;;;;;;;5014195;28;20037;-84
2024/02/24 04:55:49;;;;;;;0.10;0.10;;;;;;;;;;5030557;28;20073;-83
2024/02/24 04:58:15;;;;;;;0.10;0.10;;;;;;;;;;5014345;28;20050;-83
2024/02/24 05:00:41;;;;;;;0.20;0.20;;;;;;;;;;5014301;28;20049;-82
2024/02/24 05:03:07;;;;;;;0.10;0.10;;;;;;;;;;4997705;28;20145;-83
2024/02/24 05:05:33;;;;;;;0.10;0.10;;;;;;;;;;5013958;28;20489;-84
2024/02/24 05:07:59;;;;;;;0.10;0.10;;;;;;;;;;5014321;28;20488;-83
2024/02/24 05:10:25;;;;;;;0.10;0.10;;;;;;;;;;4997575;28;20037;-83
2024/02/24 05:12:52;;;;;;;0.10;0.10;;;;;;;;;;5013902;28;20069;-83
2024/02/24 05:15:18;;;;;;;0.10;0.10;;;;;;;;;;5013948;28;20401;-83
2024/02/24 05:17:47;;;;;;;0.10;0.10;;;;;;;;;;4997494;28;20081;-84
2024/02/24 05:20:13;;;;;;;0.10;0.10;;;;;;;;;;5013810;28;20109;-83
2024/02/24 05:22:39;;;;;;;0.10;0.10;;;;;;;;;;5013939;28;20048;-83
2024/02/24 05:25:07;;;;;;;0.10;0.10;;;;;;;;;;5013999;28;20465;-84
2024/02/24 05:27:33;;;;;;;0.10;0.10;;;;;;;;;;5013723;28;20042;-83
2024/02/24 05:29:59;;;;;;;0.10;0.10;;;;;;;;;;5013844;28;20068;-84
2024/02/24 05:32:26;;;;;;;0.10;0.10;;;;;;;;;;5013886;28;20404;-83
2024/02/24 05:34:52;;;;;;;0.10;0.10;;;;;;;;;;5013572;28;20042;-83
2024/02/24 05:37:18;;;;;;;0.10;0.10;;;;;;;;;;5013478;28;20398;-83
2024/02/24 05:39:45;;;;;;;0.10;0.10;;;;;;;;;;5013591;28;20500;-83
2024/02/24 05:42:12;;;;;;;0.10;0.10;;;;;;;;;;5013557;28;20072;-84
2024/02/24 05:44:38;;;;;;;0.10;0.10;;;;;;;;;;5013399;28;20055;-83
2024/02/24 05:47:05;;;;;;;0.10;0.10;;;;;;;;;;5013219;28;20104;-83
2024/02/24 05:49:32;;;;;;;0.10;0.10;;;;;;;;;;5013302;28;20045;-83
2024/02/24 05:51:58;;;;;;;0.17;0.17;;;;;;;;;;5013169;28;20038;-84
2024/02/24 05:54:24;;;;;;;0.10;0.10;;;;;;;;;;5014007;28;20041;-83
2024/02/24 05:56:50;;;;;;;0.10;0.10;;;;;;;;;;5016432;28;20049;-83
2024/02/24 05:59:16;;;;;;;0.10;0.10;;;;;;;;;;5000246;28;20050;-83
2024/02/24 06:01:42;;;;;;;0.10;0.10;;;;;;;;;;5000283;28;20130;-86
2024/02/24 06:04:08;;;;;;;0.10;0.10;;;;;;;;;;5016689;28;20525;-83
2024/02/24 06:06:34;;;;;;;0.10;0.10;;;;;;;;;;5016140;28;20045;-83
2024/02/24 06:09:01;;;;;;;0.10;0.10;;;;;;;;;;5016106;28;20073;-83
2024/02/24 06:11:27;;;;;;;0.10;0.10;;;;;;;;;;5016387;28;20136;-83
2024/02/24 06:13:53;;;;;;;0.10;0.10;;;;;;;;;;4999614;28;20552;-83
2024/02/24 06:16:19;;;;;;;0.10;0.10;;;;;;;;;;5016008;28;20489;-83
2024/02/24 06:18:45;;;;;;;0.10;0.10;;;;;;;;;;5015926;28;20099;-82
2024/02/24 06:21:11;;;;;;;0.10;0.10;;;;;;;;;;5016038;28;20045;-83
2024/02/24 06:23:37;;;;;;;0.10;0.10;;;;;;;;;;5015882;28;20049;-83
2024/02/24 06:26:03;;;;;;;0.10;0.10;;;;;;;;;;5015791;28;20128;-83
2024/02/24 06:28:30;;;;;;;0.10;0.10;;;;;;;;;;5015715;28;20041;-83
2024/02/24 06:30:57;;;;;;;0.10;0.10;;;;;;;;;;5015574;28;20481;-84
2024/02/24 06:33:28;;;;;;;0.10;0.10;;;;;;;;;;5015845;28;20045;-82
2024/02/24 06:35:54;;;;;;;0.10;0.10;;;;;;;;;;5015722;28;20088;-84
2024/02/24 06:38:20;;;;;;;0.10;0.10;;;;;;;;;;5015658;28;20074;-83
2024/02/24 06:40:46;;;;;;;0.10;0.10;;;;;;;;;;5015464;28;20045;-84
2024/02/24 06:43:12;;;;;;;0.10;0.10;;;;;;;;;;5015638;28;20417;-84
2024/02/24 06:45:38;;;;;;;0.10;0.10;;;;;;;;;;5015590;28;20124;-83
2024/02/24 06:48:04;;;;;;;0.10;0.10;;;;;;;;;;5015631;28;20068;-84
2024/02/24 06:50:30;;;;;;;0.10;0.10;;;;;;;;;;5015379;28;20041;-84
2024/02/24 06:52:56;;;;;;;0.10;0.10;;;;;;;;;;5015379;28;20044;-83
2024/02/24 06:55:22;;;;;;;0.10;0.10;;;;;;;;;;5031794;28;20057;-83
2024/02/24 06:57:49;;;;;;;0.10;0.10;;;;;;;;;;5015529;28;20053;-83
2024/02/24 07:00:15;;;;;;;0.10;0.10;;;;;;;;;;5015341;28;20087;-83
2024/02/24 07:02:42;;;;;;;0.10;0.10;;;;;;;;;;5015536;28;20052;-84
2024/02/24 07:05:08;;;;;;;0.10;0.10;;;;;;;;;;5015303;28;20037;-84
2024/02/24 07:07:36;;;;;;;0.13;0.13;;;;;;;;;;5014784;28;20048;-83
2024/02/24 07:10:04;;;;;;;0.10;0.10;;;;;;;;;;4998793;28;20401;-84
2024/02/24 07:12:31;;;;;;;0.10;0.10;;;;;;;;;;5015055;28;20051;-84
2024/02/24 07:14:57;;;;;;;0.10;0.10;;;;;;;;;;5015134;28;20049;-84
2024/02/24 07:17:23;;;;;;;0.10;0.10;;;;;;;;;;5015458;28;20034;-84
2024/02/24 07:19:50;;;;;;;0.10;0.10;;;;;;;;;;5014853;28;20129;-84
2024/02/24 07:22:16;;;;;;;0.10;0.10;;;;;;;;;;5015088;28;20041;-85
2024/02/24 07:24:42;;;;;;;0.10;0.10;;;;;;;;;;5014944;28;20037;-85
2024/02/24 07:27:09;;;;;;;0.10;0.10;;;;;;;;;;4998459;28;20076;-84
2024/02/24 07:29:35;;;;;;;0.10;0.10;;;;;;;;;;5014963;28;20037;-84
2024/02/24 07:32:02;;;;;;;0.10;0.10;;;;;;;;;;5015115;28;20370;-85
2024/02/24 07:34:28;;;;;;;0.10;0.10;;;;;;;;;;5014737;28;20037;-84
2024/02/24 07:36:54;;;;;;;0.10;0.10;;;;;;;;;;5014709;28;20057;-83
2024/02/24 07:39:20;;;;;;;0.10;0.10;;;;;;;;;;5014871;28;20072;-84
2024/02/24 07:41:46;;;;;;;0.10;0.10;;;;;;;;;;5015262;28;20045;-83
2024/02/24 07:44:12;;;;;;;0.20;0.20;;;;;;;;;;5014593;28;20042;-84
2024/02/24 07:46:38;;;;;;;0.10;0.10;;;;;;;;;;5014573;28;20033;-84
2024/02/24 07:49:05;;;;;;;0.10;0.10;;;;;;;;;;5014634;28;20045;-84
2024/02/24 07:51:31;;;;;;;0.10;0.10;;;;;;;;;;5014417;28;20551;-84
2024/02/24 07:53:57;;;;;;;0.43;0.43;;;;;;;;;;5014311;28;20124;-83
2024/02/24 07:56:23;;;;;;;0.10;0.10;;;;;;;;;;5014414;28;20080;-84
2024/02/24 07:58:50;;;;;;;0.10;0.10;;;;;;;;;;5014408;28;20048;-83
2024/02/24 08:01:16;;;;;;;0.10;0.10;;;;;;;;;;4998034;28;20179;-84
2024/02/24 08:03:42;;;;;;;0.10;0.10;;;;;;;;;;5014428;28;20084;-84
2024/02/24 08:06:08;;;;;;;0.10;0.10;;;;;;;;;;4997939;28;20732;-84
2024/02/24 08:08:36;;;;;;;0.10;0.10;;;;;;;;;;5014266;28;20041;-84
2024/02/24 08:11:02;;;;;;;0.10;0.10;;;;;;;;;;5030803;28;20389;-84
2024/02/24 08:13:29;;;;;;;0.10;0.10;;;;;;;;;;4997873;28;20120;-84
2024/02/24 08:15:55;;;;;;;0.10;0.10;;;;;;;;;;5030920;28;20041;-84
2024/02/24 08:18:22;;;;;;;0.10;0.10;;;;;;;;;;5034477;28;20045;-84
2024/02/24 08:20:49;;;;;;;0.10;0.10;;;;;;;;;;5018553;28;20049;-85
2024/02/24 08:23:15;;;;;;;0.10;0.10;;;;;;;;;;5018304;28;20085;-85
2024/02/24 08:25:41;;;;;;;0.10;0.10;;;;;;;;;;5018044;28;20041;-83
2024/02/24 08:28:07;;;;;;;0.10;0.10;;;;;;;;;;5018434;28;20041;-90
2024/02/24 08:30:33;;;;;;;0.10;0.10;;;;;;;;;;5018199;28;20374;-85
2024/02/24 08:32:59;;;;;;;0.10;0.10;;;;;;;;;;5018012;28;20048;-85
2024/02/24 08:35:25;;;;;;;0.15;0.15;;;;;;;;;;5018040;28;20136;-86
2024/02/24 08:37:51;;;;;;;0.17;0.17;;;;;;;;;;5017989;28;20326;-85
2024/02/24 08:40:17;;;;;;;0.10;0.10;;;;;;;;;;5001562;28;20037;-86
2024/02/24 08:42:44;;;;;;;0.10;0.10;;;;;;;;;;5017858;28;20049;-83
2024/02/24 08:45:10;;;;;;;1.13;0.30;;;;;;;;;;5034414;28;20049;-86
2024/02/24 08:47:36;;;;;;;0.10;0.10;;;;;;;;;;5017718;28;20044;-85
2024/02/24 08:50:03;;;;;;;0.10;0.10;;;;;;;;;;5017529;28;20073;-87
2024/02/24 08:52:29;;;;;;;0.10;0.10;;;;;;;;;;5017673;28;20485;-86
2024/02/24 08:54:55;;;;;;;0.10;0.10;;;;;;;;;;5001215;28;20046;-88
2024/02/24 08:57:21;;;;;;;0.10;0.10;;;;;;;;;;5017702;28;20049;-87
2024/02/24 08:59:48;;;;;;;0.10;0.10;;;;;;;;;;5017811;28;20045;-88
2024/02/24 09:02:15;;;;;;;0.28;0.28;;;;;;;;;;5017980;28;20060;-89
2024/02/24 09:04:41;;;;;;;0.10;0.10;;;;;;;;;;5017336;28;20049;-88
2024/02/24 09:07:07;;;;;;;0.20;0.20;;;;;;;;;;5017768;28;20037;-88
2024/02/24 09:09:35;;;;;;;0.30;0.30;;;;;;;;;;5017688;28;20477;-88
2024/02/24 09:12:01;;;;;;;0.15;0.15;;;;;;;;;;5017760;28;20044;-88
2024/02/24 09:14:27;;;;;;;0.20;0.20;;;;;;;;;;5017641;28;20037;-90
2024/02/24 09:16:56;;;;;;;0.20;0.20;;;;;;;;;;5017784;28;20083;-88
2024/02/24 09:19:23;;;;;;;0.10;0.10;;;;;;;;;;5017166;28;20037;-89
2024/02/24 09:21:50;;;;;;;0.10;0.10;;;;;;;;;;5017843;28;20519;-91
2024/02/24 09:24:16;;;;;;;0.10;0.10;;;;;;;;;;5017848;28;20135;-88
2024/02/24 09:26:42;;;;;;;0.20;0.20;;;;;;;;;;5017755;28;20072;-90
2024/02/24 09:29:08;;;;;;;0.10;0.10;;;;;;;;;;5017821;28;20482;-90
2024/02/24 09:31:34;;;;;;;0.30;0.30;;;;;;;;;;5017665;28;20037;-90
2024/02/24 09:34:00;;;;;;;0.10;0.10;;;;;;;;;;5017573;28;20033;-90
2024/02/24 09:36:26;;;;;;;0.10;0.10;;;;;;;;;;5018772;28;20041;-92
2024/02/24 09:38:52;;;;;;;0.20;0.20;;;;;;;;;;5017604;28;20041;-89
2024/02/24 09:41:18;;;;;;;0.20;0.20;;;;;;;;;;5017032;28;20460;-89
2024/02/24 09:43:44;;;;;;;0.20;0.20;;;;;;;;;;5000994;28;20048;-93
2024/02/24 09:46:10;;;;;;;0.10;0.10;;;;;;;;;;5018892;28;20139;-92
2024/02/24 09:48:38;;;;;;;0.20;0.20;;;;;;;;;;5019258;28;20072;-89
2024/02/24 09:51:04;;;;;;;0.20;0.20;;;;;;;;;;5015683;28;20123;-91
2024/02/24 09:53:30;;;;;;;0.30;0.30;;;;;;;;;;5016596;28;20516;-91
2024/02/24 09:55:57;;;;;;;0.57;0.20;;;;;;;;;;5016321;28;20611;-90
2024/02/24 09:58:23;;;;;;;0.30;0.30;;;;;;;;;;5016595;28;20084;-91
2024/02/24 10:00:52;;;;;;;0.10;0.10;;;;;;;;;;5016402;28;20041;-90
2024/02/24 10:03:21;;;;;;;0.20;0.20;;;;;;;;;;5016559;28;20048;-91
2024/02/24 10:05:51;;;;;;;0.10;0.10;;;;;;;;;;5016520;28;20173;-90
2024/02/24 10:08:17;;;;;;;0.57;0.57;;;;;;;;;;5016432;28;20068;-91
2024/02/24 10:10:43;;;;;;;0.17;0.17;;;;;;;;;;5016382;28;20033;-91
2024/02/24 10:13:09;;;;;;;0.20;0.20;;;;;;;;;;5016314;28;20037;-88
2024/02/24 10:15:35;;;;;;;0.10;0.10;;;;;;;;;;5016064;28;20107;-89
2024/02/24 10:18:01;;;;;;;0.10;0.10;;;;;;;;;;5016448;28;20401;-87
2024/02/24 10:20:28;;;;;;;0.10;0.10;;;;;;;;;;5016237;28;20037;-87
2024/02/24 10:22:54;;;;;;;0.10;0.10;;;;;;;;;;5016083;28;20059;-88
2024/02/24 10:25:21;;;;;;;0.22;0.22;;;;;;;;;;5016229;28;20106;-87
2024/02/24 10:27:47;;;;;;;0.15;0.13;;;;;;;;;;5016159;28;20033;-90
2024/02/24 10:30:13;;;;;;;0.20;0.20;;;;;;;;;;5015582;28;20175;-89
2024/02/24 10:32:41;;;;;;;0.10;0.10;;;;;;;;;;5015638;28;20037;-89
2024/02/24 10:35:08;;;;;;;0.40;0.40;;;;;;;;;;4999671;28;20370;-88
2024/02/24 10:37:34;;;;;;;0.10;0.10;;;;;;;;;;5015923;28;20041;-88
2024/02/24 10:40:04;;;;;;;0.32;0.32;;;;;;;;;;5015492;28;20124;-88
2024/02/24 10:42:30;;;;;;;0.10;0.10;;;;;;;;;;4998142;28;20034;-86
2024/02/24 10:44:56;;;;;;;0.10;0.10;;;;;;;;;;5014814;28;20099;-85
2024/02/24 10:47:23;;;;;;;0.10;0.10;;;;;;;;;;5015194;28;20042;-85
2024/02/24 10:49:49;;;;;;;0.10;0.10;;;;;;;;;;5015548;28;20037;-86
2024/02/24 10:52:15;;;;;;;0.28;0.22;;;;;;;;;;5015137;28;20041;-86
2024/02/24 10:54:42;;;;;;;0.10;0.10;;;;;;;;;;4998886;28;20058;-86
2024/02/24 10:57:08;;;;;;;0.13;0.13;;;;;;;;;;4998651;28;20485;-87
2024/02/24 10:59:34;;;;;;;0.10;0.10;;;;;;;;;;4998392;28;20087;-87
2024/02/24 11:02:08;;;;;;;0.10;0.10;;;;;;;;;;5133320;27;20379;-85
2024/02/24 11:04:35;;;;;;;0.25;0.25;;;;;;;;;;5129850;27;20093;-86
2024/02/24 11:07:01;;;;;;;0.10;0.10;;;;;;;;;;5095447;28;20035;-90
2024/02/24 11:09:29;;;;;;;0.30;0.30;;;;;;;;;;5112488;28;20043;-87
2024/02/24 11:12:08;;;;;;;0.10;0.10;;;;;;;;;;5129097;27;20073;-87
2024/02/24 11:14:35;;;;;;;0.10;0.10;;;;;;;;;;5112150;28;20039;-87
2024/02/24 11:17:05;;;;;;;0.17;0.17;;;;;;;;;;5095398;28;20451;-86
2024/02/24 11:19:43;;;;;;;0.10;0.10;;;;;;;;;;5112075;28;20039;-86
2024/02/24 11:22:12;;;;;;;0.17;0.17;;;;;;;;;;5128765;27;20036;-87
2024/02/24 11:24:38;;;;;;;0.10;0.10;;;;;;;;;;5094647;28;20062;-87
2024/02/24 11:27:04;;;;;;;0.10;0.10;;;;;;;;;;5094642;28;20036;-87
2024/02/24 11:29:30;;;;;;;0.10;0.10;;;;;;;;;;5111561;28;20555;-87
2024/02/24 11:32:06;;;;;;;0.20;0.20;;;;;;;;;;5111487;28;20054;-87
2024/02/24 11:34:33;;;;;;;0.20;0.20;;;;;;;;;;5111702;28;20040;-87
2024/02/24 11:36:59;;;;;;;0.30;0.30;;;;;;;;;;5094541;28;20047;-87
2024/02/24 11:39:26;;;;;;;0.10;0.10;;;;;;;;;;5090405;28;20406;-87
2024/02/24 11:41:54;;;;;;;0.10;0.10;;;;;;;;;;5074183;28;20050;-86
2024/02/24 11:44:21;;;;;;;0.10;0.10;;;;;;;;;;5091432;28;20036;-86
2024/02/24 11:46:48;;;;;;;0.10;0.10;;;;;;;;;;5091336;28;20042;-87
2024/02/24 11:49:17;;;;;;;0.10;0.10;;;;;;;;;;5091030;28;20078;-87
2024/02/24 11:51:46;;;;;;;0.20;0.20;;;;;;;;;;5073849;28;20097;-86
2024/02/24 11:54:12;;;;;;;0.10;0.10;;;;;;;;;;5074409;28;20051;-87
2024/02/24 11:56:38;;;;;;;0.30;0.30;;;;;;;;;;5073969;28;20051;-87
2024/02/24 11:59:04;;;;;;;0.20;0.20;;;;;;;;;;5090715;28;20036;-87
2024/02/24 12:01:30;;;;;;;0.10;0.10;;;;;;;;;;5073679;28;20051;-87
2024/02/24 12:03:59;;;;;;;1.15;0.65;;;;;;;;;;5090708;28;20047;-87
2024/02/24 12:06:28;;;;;;;0.10;0.10;;;;;;;;;;5091251;28;20043;-87
2024/02/24 12:08:54;;;;;;;0.13;0.13;;;;;;;;;;5073504;28;20036;-87
2024/02/24 12:11:21;;;;;;;0.10;0.10;;;;;;;;;;5089759;28;20372;-86
2024/02/24 12:13:47;;;;;;;0.10;0.10;;;;;;;;;;5060193;28;20040;-87
2024/02/24 12:16:13;;;;;;;0.20;0.20;;;;;;;;;;5059747;28;20051;-86
2024/02/24 12:18:42;;;;;;;0.10;0.10;;;;;;;;;;5060205;28;20054;-86
2024/02/24 12:21:10;;;;;;;0.35;0.35;;;;;;;;;;5076976;28;20040;-87
2024/02/24 12:23:38;;;;;;;0.10;0.10;;;;;;;;;;5070376;28;20036;-87
2024/02/24 12:26:16;;;;;;;0.17;0.17;;;;;;;;;;5097061;28;20044;-87
2024/02/24 12:28:45;;;;;;;0.30;0.30;;;;;;;;;;5096836;28;20036;-87
2024/02/24 12:31:11;;;;;;;0.20;0.20;;;;;;;;;;5080160;28;20040;-88
2024/02/24 12:33:37;;;;;;;0.25;0.25;;;;;;;;;;5078182;28;20040;-87
2024/02/24 12:36:13;;;;;;;0.10;0.10;;;;;;;;;;5096933;28;20036;-87
2024/02/24 12:38:39;;;;;;;0.10;0.10;;;;;;;;;;5080306;28;20126;-88
2024/02/24 12:41:14;;;;;;;0.10;0.10;;;;;;;;;;5080587;28;20491;-88
2024/02/24 12:43:41;;;;;;;0.20;0.20;;;;;;;;;;5081722;28;20062;-89
2024/02/24 12:46:07;;;;;;;0.10;0.10;;;;;;;;;;5098299;28;20536;-88
2024/02/24 12:48:33;;;;;;;0.20;0.20;;;;;;;;;;5082657;28;20035;-88
2024/02/24 12:51:00;;;;;;;0.10;0.10;;;;;;;;;;5083089;28;20043;-88
2024/02/24 12:53:26;;;;;;;0.10;0.10;;;;;;;;;;5084479;28;20052;-87
2024/02/24 12:55:53;;;;;;;0.10;0.10;;;;;;;;;;5083508;28;20038;-87
2024/02/24 12:58:20;;;;;;;0.10;0.10;;;;;;;;;;5084760;28;20039;-88
2024/02/24 13:00:47;;;;;;;0.10;0.10;;;;;;;;;;5099104;28;20172;-88
2024/02/24 13:03:13;;;;;;;0.10;0.10;;;;;;;;;;5097582;28;20043;-88
2024/02/24 13:05:39;;;;;;;0.10;0.10;;;;;;;;;;5096896;28;20043;-87
2024/02/24 13:08:05;;;;;;;0.10;0.10;;;;;;;;;;5079741;28;20035;-87
2024/02/24 13:10:31;;;;;;;0.10;0.10;;;;;;;;;;5096286;28;20451;-85
2024/02/24 13:12:58;;;;;;;0.15;0.15;;;;;;;;;;5079400;28;20479;-87
2024/02/24 13:15:24;;;;;;;0.10;0.10;;;;;;;;;;5096323;28;20047;-88
2024/02/24 13:17:50;;;;;;;0.10;0.10;;;;;;;;;;5079861;28;20051;-86
2024/02/24 13:20:16;;;;;;;0.10;0.10;;;;;;;;;;5074831;28;20127;-87
2024/02/24 13:22:42;;;;;;;0.10;0.10;;;;;;;;;;5075583;28;20425;-85
2024/02/24 13:25:08;;;;;;;0.20;0.20;;;;;;;;;;5083878;28;20043;-87
2024/02/24 13:27:35;;;;;;;0.20;0.20;;;;;;;;;;5075214;28;20110;-86
2024/02/24 13:30:01;;;;;;;0.10;0.10;;;;;;;;;;5061574;28;20032;-87
2024/02/24 13:32:27;;;;;;;0.10;0.10;;;;;;;;;;5082325;28;20038;-88
2024/02/24 13:34:53;;;;;;;0.20;0.20;;;;;;;;;;5074561;28;20040;-86
2024/02/24 13:37:19;;;;;;;0.20;0.20;;;;;;;;;;5086847;28;20046;-86
2024/02/24 13:39:46;;;;;;;0.10;0.10;;;;;;;;;;5074942;28;20042;-86
2024/02/24 13:42:13;;;;;;;0.30;0.30;;;;;;;;;;5072325;28;20028;-88
2024/02/24 13:44:39;;;;;;;0.22;0.22;;;;;;;;;;5078734;28;20043;-89
2024/02/24 13:47:06;;;;;;;0.10;0.10;;;;;;;;;;5078824;28;20141;-88
2024/02/24 13:49:32;;;;;;;0.10;0.10;;;;;;;;;;5096296;28;20067;-89
2024/02/24 13:51:59;;;;;;;0.20;0.20;;;;;;;;;;5079473;28;20036;-91
2024/02/24 13:54:29;;;;;;;0.10;0.10;;;;;;;;;;5097417;28;20070;-89
2024/02/24 13:56:58;;;;;;;0.10;0.10;;;;;;;;;;5079386;28;20588;-90
2024/02/24 13:59:24;;;;;;;0.38;0.30;;;;;;;;;;5076198;28;20044;-91
2024/02/24 14:01:50;;;;;;;0.10;0.10;;;;;;;;;;5076517;28;20051;-90
2024/02/24 14:04:17;;;;;;;0.20;0.20;;;;;;;;;;5069761;28;20054;-90
2024/02/24 14:06:43;;;;;;;0.10;0.10;;;;;;;;;;5059772;28;20070;-90
2024/02/24 14:09:09;;;;;;;0.35;0.20;;;;;;;;;;5060259;28;20240;-91
2024/02/24 14:11:39;;;;;;;0.10;0.10;;;;;;;;;;5060330;28;20098;-90
2024/02/24 14:14:05;;;;;;;0.10;0.10;;;;;;;;;;5059755;28;20051;-91
2024/02/24 14:16:31;;;;;;;0.20;0.20;;;;;;;;;;5076563;28;20040;-87
2024/02/24 14:18:57;;;;;;;0.20;0.20;;;;;;;;;;5058782;28;20036;-88
2024/02/24 14:21:23;;;;;;;0.20;0.20;;;;;;;;;;5058318;28;20048;-88
2024/02/24 14:23:52;;;;;;;1.40;0.50;;;;;;;;;;5075485;28;20044;-87
2024/02/24 14:26:19;;;;;;;0.10;0.10;;;;;;;;;;5058749;28;20039;-87
2024/02/24 14:28:48;;;;;;;0.30;0.30;;;;;;;;;;5075229;28;20387;-88
2024/02/24 14:31:15;;;;;;;0.10;0.10;;;;;;;;;;5066350;28;20072;-86
2024/02/24 14:33:41;;;;;;;0.20;0.20;;;;;;;;;;5058579;28;20446;-87
2024/02/24 14:36:07;;;;;;;0.10;0.10;;;;;;;;;;5074891;28;20043;-88
2024/02/24 14:38:33;;;;;;;0.10;0.10;;;;;;;;;;5074793;28;20047;-88